Bookmark and Share
Track history (hours):
 

#dbistima

Last reported at 2014-Apr-23 23:31 UTC. Time now 2014-Apr-24 00:12 UTC.
Position N 53°38' W 000°12'.

MMSI: 304010972.

NotesDate/timePositionNaut miles runAvg speedWind from/ knotsBaromVisibWave heightAir tempDewpointWater temp
2014-Apr-23 23:31N 53°38' W 000°12'0 0.0
2014-Apr-23 22:28N 53°38' W 000°12'0 0.0
2014-Apr-23 21:31N 53°38' W 000°12'0 0.0
2014-Apr-23 20:28N 53°38' W 000°12'0 0.0
2014-Apr-23 19:19N 53°38' W 000°12'0 0.6
2014-Apr-23 18:33N 53°38' W 000°11'0 0.4
2014-Apr-23 17:33N 53°38' W 000°11'2 2.1
2014-Apr-23 16:33N 53°40' W 000°13'5 5.0
2014-Apr-23 15:33N 53°44' W 000°16'0 0.2
2014-Apr-23 14:10N 53°45' W 000°16'0 0.0
2014-Apr-23 13:22N 53°45' W 000°16'0 0.0
2014-Apr-23 12:28N 53°45' W 000°16'0 0.0
2014-Apr-23 11:25N 53°45' W 000°16'0 0.0
2014-Apr-23 10:28N 53°45' W 000°16'0 0.0
2014-Apr-23 08:28N 53°45' W 000°16'0 0.0
2014-Apr-23 07:31N 53°45' W 000°16'0 0.0
2014-Apr-23 06:16N 53°45' W 000°16'0 0.0
2014-Apr-23 05:19N 53°45' W 000°16'0 0.0
2014-Apr-23 03:22N 53°45' W 000°16'0 0.0
2014-Apr-23 02:10N 53°45' W 000°16'0 0.0
2014-Apr-23 01:22N 53°45' W 000°16'0 0.0
2014-Apr-23 00:25N 53°45' W 000°16'0 0.0
2014-Apr-22 23:28N 53°45' W 000°16'0 0.0
2014-Apr-22 22:28N 53°45' W 000°16'0 0.0
2014-Apr-22 21:28N 53°45' W 000°16'0 0.0
2014-Apr-22 20:28N 53°45' W 000°16'0 0.0
2014-Apr-22 19:31N 53°45' W 000°16'0 0.0
2014-Apr-22 18:28N 53°45' W 000°16'0 0.0
2014-Apr-22 17:31N 53°45' W 000°16'0 0.0
2014-Apr-22 16:16N 53°45' W 000°16'0 0.0
2014-Apr-22 15:31N 53°45' W 000°16'0 0.0
2014-Apr-22 14:22N 53°45' W 000°16'0 0.0
2014-Apr-22 12:25N 53°45' W 000°16'0 0.0
2014-Apr-22 11:25N 53°45' W 000°16'0 0.0
2014-Apr-22 10:22N 53°45' W 000°16'0 0.0
2014-Apr-22 09:25N 53°45' W 000°16'0 0.0
2014-Apr-22 08:28N 53°45' W 000°16'0 0.0
2014-Apr-22 07:13N 53°45' W 000°16'0 0.0
2014-Apr-22 06:32N 53°45' W 000°16'0 0.0
2014-Apr-22 05:31N 53°45' W 000°16'0 0.0
2014-Apr-22 04:19N 53°45' W 000°16'0 0.0
2014-Apr-22 03:28N 53°45' W 000°16'0 0.0
2014-Apr-22 02:31N 53°45' W 000°16'0 0.0
2014-Apr-22 01:32N 53°45' W 000°16'0 0.0
2014-Apr-22 00:31N 53°45' W 000°16'0 0.0
2014-Apr-21 23:22N 53°45' W 000°16'0 0.0
2014-Apr-21 22:07N 53°45' W 000°16'0 0.0
2014-Apr-21 21:22N 53°45' W 000°16'0 0.0
2014-Apr-21 20:22N 53°45' W 000°16'0 0.0
2014-Apr-21 19:28N 53°45' W 000°16'0 0.0
2014-Apr-21 18:28N 53°45' W 000°16'0 0.0
2014-Apr-21 17:28N 53°45' W 000°16'0 0.0
2014-Apr-21 16:28N 53°45' W 000°16'0 0.0
2014-Apr-21 15:33N 53°45' W 000°16'0 0.0
2014-Apr-21 14:33N 53°45' W 000°16'0 0.0
2014-Apr-21 13:32N 53°45' W 000°16'0 0.0
2014-Apr-21 12:33N 53°45' W 000°16'0 0.0
2014-Apr-21 11:33N 53°45' W 000°16'1 0.8
2014-Apr-21 10:34N 53°44' W 000°16'8 8.3
2014-Apr-21 09:33N 53°37' W 000°07'1110.6
2014-Apr-21 08:33N 53°33' E 000°09'9 8.5
2014-Apr-21 07:33N 53°38' E 000°21'1310.8
2014-Apr-21 06:18N 53°46' E 000°39'810.4
2014-Apr-21 05:33N 53°51' E 000°50'1110.5
2014-Apr-21 04:33N 53°57' E 001°04'1010.3
2014-Apr-21 03:34N 54°04' E 001°18'1010.4
2014-Apr-21 02:33N 54°10' E 001°32'1110.3
2014-Apr-21 01:30N 54°16' E 001°47'28110.3
2014-Apr-19 22:15N 57°14' E 008°12'7510.5
2014-Apr-19 15:06N 57°48' E 010°17'610.6
2014-Apr-19 14:33N 57°48' E 010°28'10 9.7
2014-Apr-19 13:33N 57°48' E 010°46'1010.1
2014-Apr-19 12:34N 57°41' E 011°00'1010.3
2014-Apr-19 11:34N 57°34' E 011°14'1010.3
2014-Apr-19 10:33N 57°26' E 011°27'1110.6
2014-Apr-19 09:33N 57°16' E 011°34'2110.6
2014-Apr-19 07:33N 56°56' E 011°47'1010.2
2014-Apr-19 06:33N 56°47' E 011°53'2010.2
2014-Apr-19 04:34N 56°27' E 012°01'1010.2
2014-Apr-19 03:32N 56°17' E 012°08'1110.8
2014-Apr-19 02:33N 56°11' E 012°23'1111.1
2014-Apr-19 01:33N 56°04' E 012°39'1010.5
2014-Apr-19 00:34N 55°54' E 012°44'1110.7
2014-Apr-18 23:34N 55°43' E 012°42'1010.4
2014-Apr-18 22:34N 55°33' E 012°43'1010.1
2014-Apr-18 21:33N 55°23' E 012°41'9 8.8
2014-Apr-18 20:33N 55°16' E 012°51'1010.4
2014-Apr-18 19:33N 55°15' E 013°09'1110.3
2014-Apr-18 18:32N 55°05' E 013°17'1410.5
2014-Apr-18 17:10N 54°53' E 013°29'711.2
2014-Apr-18 16:33N 54°47' E 013°34'1110.8
2014-Apr-18 15:33N 54°37' E 013°43'1010.4
2014-Apr-18 14:33N 54°27' E 013°50'9 9.3
2014-Apr-18 13:33N 54°18' E 013°47'9 8.6
2014-Apr-18 12:34N 54°12' E 013°37'4 4.1
2014-Apr-18 11:34N 54°08' E 013°34'0 0.0
2014-Apr-18 10:33N 54°08' E 013°34'0 0.0
2014-Apr-18 09:34N 54°08' E 013°34'0 0.0
2014-Apr-18 08:33N 54°08' E 013°34'0 0.0
2014-Apr-18 07:33N 54°08' E 013°34'0 0.0
2014-Apr-18 06:34N 54°08' E 013°34'0 0.0
2014-Apr-18 05:33N 54°08' E 013°34'0 0.0
2014-Apr-18 04:33N 54°08' E 013°34'0 0.0
2014-Apr-18 03:33N 54°08' E 013°34'0 0.0
2014-Apr-18 02:33N 54°08' E 013°34'0 0.0
2014-Apr-18 01:33N 54°08' E 013°34'0 0.0
2014-Apr-18 00:33N 54°08' E 013°34'0 0.0
2014-Apr-17 23:33N 54°08' E 013°34'0 0.0
2014-Apr-17 22:33N 54°08' E 013°34'0 0.0
2014-Apr-17 21:33N 54°08' E 013°34'0 0.0
2014-Apr-17 20:33N 54°08' E 013°34'0 0.0
2014-Apr-17 19:33N 54°08' E 013°34'0 0.0
2014-Apr-17 18:33N 54°08' E 013°34'0 0.0
2014-Apr-17 17:33N 54°08' E 013°34'0 0.0
2014-Apr-17 16:33N 54°08' E 013°34'0 0.0
2014-Apr-17 15:33N 54°08' E 013°34'0 0.0
2014-Apr-17 14:33N 54°08' E 013°34'0 0.0
2014-Apr-17 13:33N 54°08' E 013°34'0 0.0
2014-Apr-17 12:33N 54°08' E 013°34'0 0.0
2014-Apr-17 11:33N 54°08' E 013°34'0 0.0
2014-Apr-17 10:33N 54°08' E 013°34'0 0.1
2014-Apr-17 09:33N 54°08' E 013°34'6 5.6
2014-Apr-17 08:33N 54°13' E 013°40'9 8.6
2014-Apr-17 07:33N 54°20' E 013°49'10 9.8
2014-Apr-17 06:33N 54°29' E 013°47'1010.3
2014-Apr-17 05:33N 54°39' E 013°39'1010.0
2014-Apr-17 04:33N 54°44' E 013°25'1110.6
2014-Apr-17 03:33N 54°44' E 013°06'1010.4
2014-Apr-17 02:33N 54°44' E 012°49'1210.3
2014-Apr-17 01:23N 54°38' E 012°31'911.0
2014-Apr-17 00:33N 54°32' E 012°19'1110.5
2014-Apr-16 23:34N 54°23' E 012°09'1111.0
2014-Apr-16 22:31N 54°12' E 012°05'5 2.6
2014-Apr-16 20:32N 54°07' E 012°05'0 0.0
2014-Apr-16 19:26N 54°07' E 012°05'0 0.0
2014-Apr-16 18:32N 54°07' E 012°05'0 0.0
2014-Apr-16 17:08N 54°07' E 012°05'0 0.0
2014-Apr-16 16:26N 54°07' E 012°05'0 0.0
2014-Apr-16 15:32N 54°07' E 012°05'0 0.0
2014-Apr-16 14:32N 54°07' E 012°05'0 0.0
2014-Apr-16 13:32N 54°07' E 012°05'0 0.0
2014-Apr-16 12:14N 54°07' E 012°05'0 0.0
2014-Apr-16 11:32N 54°07' E 012°05'0 0.0
2014-Apr-16 10:32N 54°07' E 012°05'0 0.0
2014-Apr-16 08:29N 54°07' E 012°05'0 0.0
2014-Apr-16 07:32N 54°07' E 012°05'0 0.0
2014-Apr-16 05:29N 54°07' E 012°05'0 0.0
2014-Apr-16 03:11N 54°07' E 012°05'0 0.0
2014-Apr-16 02:32N 54°07' E 012°05'0 0.0
2014-Apr-16 01:29N 54°07' E 012°05'0 0.0
2014-Apr-15 23:17N 54°07' E 012°05'0 0.0
2014-Apr-15 22:32N 54°07' E 012°05'0 0.0
2014-Apr-15 20:17N 54°07' E 012°05'0 0.0
2014-Apr-15 19:06N 54°07' E 012°05'1 2.2
2014-Apr-15 18:33N 54°08' E 012°06'8 8.0
2014-Apr-15 17:33N 54°16' E 012°02'1010.3
2014-Apr-15 16:33N 54°26' E 011°58'9 8.7
2014-Apr-15 15:33N 54°29' E 012°12'40 7.9
2014-Apr-15 10:33N 54°53' E 013°07'2110.4
2014-Apr-15 08:33N 54°60' E 013°41'1110.6
2014-Apr-15 07:33N 55°03' E 013°59'1010.0
2014-Apr-15 06:33N 55°10' E 014°12'1110.9
2014-Apr-15 05:34N 55°18' E 014°24'2210.9
2014-Apr-15 03:34N 55°32' E 014°53'1111.0
2014-Apr-15 02:34N 55°38' E 015°10'2311.1
2014-Apr-15 00:31N 55°49' E 015°45'1111.1
2014-Apr-14 23:33N 55°54' E 016°01'1111.0
2014-Apr-14 22:33N 55°60' E 016°18'  

Dump ship's entire track history

sailing weather and tide predictions

#dbistima — V2PX5 — position and weather